sensor_id;sensor_type;location;lat;lon;timestamp;pressure;altitude;pressure_sealevel;temperature;humidity
71956;BME280;59829;50.562;6.258;2023-03-01T00:04:36;97396.19;;;24.77;28.44
71956;BME280;59829;50.562;6.258;2023-03-01T00:14:36;97398.72;;;24.62;28.73
71956;BME280;59829;50.562;6.258;2023-03-01T00:24:36;97393.38;;;24.55;28.71
71956;BME280;59829;50.562;6.258;2023-03-01T00:34:37;97389.03;;;24.40;28.84
71956;BME280;59829;50.562;6.258;2023-03-01T00:44:37;97377.59;;;24.32;29.23
71956;BME280;59829;50.562;6.258;2023-03-01T00:54:37;97381.66;;;24.27;29.26
71956;BME280;59829;50.562;6.258;2023-03-01T01:04:38;97382.53;;;24.19;29.55
71956;BME280;59829;50.562;6.258;2023-03-01T01:14:38;97388.09;;;24.16;29.40
71956;BME280;59829;50.562;6.258;2023-03-01T01:24:38;97370.47;;;24.02;29.70
71956;BME280;59829;50.562;6.258;2023-03-01T01:34:39;97361.50;;;23.96;29.68
71956;BME280;59829;50.562;6.258;2023-03-01T01:44:39;97354.63;;;23.95;29.88
71956;BME280;59829;50.562;6.258;2023-03-01T01:54:44;97348.91;;;23.92;29.73
71956;BME280;59829;50.562;6.258;2023-03-01T02:04:47;97332.72;;;23.88;29.85
71956;BME280;59829;50.562;6.258;2023-03-01T02:14:49;97316.72;;;23.83;29.88
71956;BME280;59829;50.562;6.258;2023-03-01T02:35:14;97303.97;;;23.80;29.85
71956;BME280;59829;50.562;6.258;2023-03-01T02:45:16;97295.78;;;23.83;29.99
71956;BME280;59829;50.562;6.258;2023-03-01T02:55:17;97289.09;;;23.81;30.18
71956;BME280;59829;50.562;6.258;2023-03-01T03:05:23;97273.88;;;23.84;29.90
71956;BME280;59829;50.562;6.258;2023-03-01T03:15:25;97277.94;;;23.87;30.06
71956;BME280;59829;50.562;6.258;2023-03-01T03:25:28;97285.09;;;23.93;29.78
71956;BME280;59829;50.562;6.258;2023-03-01T03:35:34;97271.53;;;23.89;29.88
71956;BME280;59829;50.562;6.258;2023-03-01T03:45:35;97267.94;;;23.90;29.79
71956;BME280;59829;50.562;6.258;2023-03-01T03:55:35;97254.03;;;23.90;29.99
71956;BME280;59829;50.562;6.258;2023-03-01T04:05:40;97245.25;;;23.83;30.04
71956;BME280;59829;50.562;6.258;2023-03-01T04:15:40;97237.06;;;23.77;30.02
71956;BME280;59829;50.562;6.258;2023-03-01T04:35:49;97231.38;;;23.74;30.04
71956;BME280;59829;50.562;6.258;2023-03-01T04:45:50;97212.59;;;23.70;30.13
71956;BME280;59829;50.562;6.258;2023-03-01T04:55:51;97210.44;;;23.74;29.94
71956;BME280;59829;50.562;6.258;2023-03-01T05:05:52;97221.88;;;23.73;30.04
71956;BME280;59829;50.562;6.258;2023-03-01T05:16:00;97222.41;;;23.68;30.17
71956;BME280;59829;50.562;6.258;2023-03-01T05:26:03;97201.13;;;23.71;30.02
71956;BME280;59829;50.562;6.258;2023-03-01T05:36:05;97206.38;;;23.71;30.27
71956;BME280;59829;50.562;6.258;2023-03-01T05:46:06;97209.97;;;23.70;30.21
71956;BME280;59829;50.562;6.258;2023-03-01T05:56:07;97214.84;;;23.73;30.29
71956;BME280;59829;50.562;6.258;2023-03-01T06:06:07;97215.19;;;23.70;30.06
71956;BME280;59829;50.562;6.258;2023-03-01T06:16:08;97211.94;;;23.68;30.25
71956;BME280;59829;50.562;6.258;2023-03-01T06:26:08;97209.63;;;23.73;30.14
71956;BME280;59829;50.562;6.258;2023-03-01T06:36:09;97201.81;;;23.65;30.01
71956;BME280;59829;50.562;6.258;2023-03-01T06:46:10;97193.81;;;23.67;30.04
71956;BME280;59829;50.562;6.258;2023-03-01T06:56:10;97194.28;;;23.70;30.10
71956;BME280;59829;50.562;6.258;2023-03-01T07:06:10;97194.28;;;23.70;30.18
71956;BME280;59829;50.562;6.258;2023-03-01T07:16:11;97188.69;;;23.73;30.00
71956;BME280;59829;50.562;6.258;2023-03-01T07:26:11;97182.28;;;23.84;30.21
71956;BME280;59829;50.562;6.258;2023-03-01T07:36:12;97190.94;;;23.85;30.36
71956;BME280;59829;50.562;6.258;2023-03-01T07:46:12;97190.94;;;23.85;30.49
71956;BME280;59829;50.562;6.258;2023-03-01T07:56:15;97185.00;;;23.91;30.63
71956;BME280;59829;50.562;6.258;2023-03-01T08:06:18;97185.31;;;23.96;30.64
71956;BME280;59829;50.562;6.258;2023-03-01T08:16:19;97170.25;;;23.98;30.79
71956;BME280;59829;50.562;6.258;2023-03-01T08:26:20;97161.41;;;23.99;31.02
71956;BME280;59829;50.562;6.258;2023-03-01T08:36:26;97171.88;;;23.99;30.92
71956;BME280;59829;50.562;6.258;2023-03-01T08:46:27;97162.06;;;24.01;31.35
71956;BME280;59829;50.562;6.258;2023-03-01T08:56:28;97162.34;;;24.06;31.12
71956;BME280;59829;50.562;6.258;2023-03-01T09:06:32;97152.16;;;24.11;31.17
71956;BME280;59829;50.562;6.258;2023-03-01T09:16:33;97144.97;;;24.13;31.01
71956;BME280;59829;50.562;6.258;2023-03-01T09:26:35;97149.13;;;24.30;30.89
71956;BME280;59829;50.562;6.258;2023-03-01T09:36:36;97142.72;;;24.33;31.08
71956;BME280;59829;50.562;6.258;2023-03-01T09:46:42;97135.84;;;24.32;30.95
71956;BME280;59829;50.562;6.258;2023-03-01T09:57:01;97142.53;;;24.34;31.06
71956;BME280;59829;50.562;6.258;2023-03-01T10:28:58;97136.53;;;24.49;31.16
71956;BME280;59829;50.562;6.258;2023-03-01T10:49:18;97115.81;;;24.91;30.78
71956;BME280;59829;50.562;6.258;2023-03-01T10:59:38;97107.34;;;25.19;30.30
71956;BME280;59829;50.562;6.258;2023-03-01T11:09:38;97091.47;;;25.42;30.19
71956;BME280;59829;50.562;6.258;2023-03-01T11:19:39;97066.22;;;25.55;29.71
71956;BME280;59829;50.562;6.258;2023-03-01T11:29:43;97053.94;;;25.77;29.88
71956;BME280;59829;50.562;6.258;2023-03-01T11:39:59;97047.06;;;25.76;29.92
71956;BME280;59829;50.562;6.258;2023-03-01T11:50:16;97037.63;;;25.82;30.02
71956;BME280;59829;50.562;6.258;2023-03-01T12:00:58;97025.19;;;25.91;29.96
71956;BME280;59829;50.562;6.258;2023-03-01T12:21:38;96991.69;;;26.21;29.45
71956;BME280;59829;50.562;6.258;2023-03-01T12:32:03;96988.09;;;26.22;30.19
71956;BME280;59829;50.562;6.258;2023-03-01T12:52:53;97003.19;;;26.41;30.36
71956;BME280;59829;50.562;6.258;2023-03-01T13:03:04;96987.50;;;26.54;30.20
71956;BME280;59829;50.562;6.258;2023-03-01T13:43:29;96985.16;;;26.72;30.88
71956;BME280;59829;50.562;6.258;2023-03-01T13:53:35;96976.03;;;26.68;31.17
71956;BME280;59829;50.562;6.258;2023-03-01T14:03:41;96976.66;;;26.70;32.44
71956;BME280;59829;50.562;6.258;2023-03-01T14:24:17;96972.25;;;26.78;33.60
71956;BME280;59829;50.562;6.258;2023-03-01T14:34:23;96954.25;;;26.74;33.30
71956;BME280;59829;50.562;6.258;2023-03-01T14:44:24;96935.00;;;26.67;34.21
71956;BME280;59829;50.562;6.258;2023-03-01T14:54:29;96927.25;;;26.53;34.52
71956;BME280;59829;50.562;6.258;2023-03-01T15:04:35;96914.47;;;26.43;34.60
71956;BME280;59829;50.562;6.258;2023-03-01T15:14:42;96895.91;;;26.17;34.51
71956;BME280;59829;50.562;6.258;2023-03-01T15:24:48;96893.66;;;26.07;34.98
71956;BME280;59829;50.562;6.258;2023-03-01T15:34:49;96892.44;;;25.32;31.58
71956;BME280;59829;50.562;6.258;2023-03-01T15:45:25;96898.38;;;25.19;31.55
71956;BME280;59829;50.562;6.258;2023-03-01T15:55:30;96899.78;;;25.43;31.91
71956;BME280;59829;50.562;6.258;2023-03-01T16:05:33;96892.81;;;25.29;32.42
71956;BME280;59829;50.562;6.258;2023-03-01T16:15:34;96864.22;;;25.34;32.55
71956;BME280;59829;50.562;6.258;2023-03-01T16:25:36;96859.03;;;25.41;32.43
71956;BME280;59829;50.562;6.258;2023-03-01T16:35:39;96864.66;;;25.38;32.12
71956;BME280;59829;50.562;6.258;2023-03-01T16:45:40;96867.84;;;25.12;32.62
71956;BME280;59829;50.562;6.258;2023-03-01T16:55:44;96875.41;;;25.00;32.77
71956;BME280;59829;50.562;6.258;2023-03-01T17:05:45;96877.94;;;24.79;33.01
71956;BME280;59829;50.562;6.258;2023-03-01T17:15:51;96885.75;;;24.72;33.01
71956;BME280;59829;50.562;6.258;2023-03-01T17:25:59;96872.13;;;24.62;33.08
71956;BME280;59829;50.562;6.258;2023-03-01T17:36:00;96870.06;;;24.57;33.31
71956;BME280;59829;50.562;6.258;2023-03-01T17:46:01;96880.91;;;24.40;33.71
71956;BME280;59829;50.562;6.258;2023-03-01T17:56:04;96882.28;;;24.35;33.81
71956;BME280;59829;50.562;6.258;2023-03-01T18:06:13;96875.06;;;24.38;33.91
71956;BME280;59829;50.562;6.258;2023-03-01T18:16:16;96878.84;;;24.35;33.95
71956;BME280;59829;50.562;6.258;2023-03-01T18:26:17;96872.69;;;24.28;34.04
71956;BME280;59829;50.562;6.258;2023-03-01T18:36:23;96864.31;;;24.18;34.11
71956;BME280;59829;50.562;6.258;2023-03-01T18:46:25;96881.00;;;24.17;34.51
71956;BME280;59829;50.562;6.258;2023-03-01T18:56:27;96854.38;;;24.13;34.25
71956;BME280;59829;50.562;6.258;2023-03-01T19:06:30;96859.97;;;24.10;34.32
71956;BME280;59829;50.562;6.258;2023-03-01T19:16:32;96846.34;;;24.00;34.65
71956;BME280;59829;50.562;6.258;2023-03-01T19:33:29;96843.88;;;22.85;29.50
71956;BME280;59829;50.562;6.258;2023-03-01T19:43:31;96843.56;;;22.58;27.29
71956;BME280;59829;50.562;6.258;2023-03-01T19:53:31;96835.19;;;22.31;27.29
71956;BME280;59829;50.562;6.258;2023-03-01T20:03:35;96818.91;;;22.21;26.77
71956;BME280;59829;50.562;6.258;2023-03-01T20:13:35;96804.97;;;22.06;25.85
71956;BME280;59829;50.562;6.258;2023-03-01T20:23:35;96807.81;;;22.27;27.05
71956;BME280;59829;50.562;6.258;2023-03-01T20:33:36;96813.63;;;22.37;28.16
71956;BME280;59829;50.562;6.258;2023-03-01T20:43:38;96819.69;;;22.61;27.43
71956;BME280;59829;50.562;6.258;2023-03-01T20:53:40;96815.91;;;22.94;28.21
71956;BME280;59829;50.562;6.258;2023-03-01T21:03:41;96815.31;;;23.30;28.51
71956;BME280;59829;50.562;6.258;2023-03-01T21:13:41;96818.81;;;23.74;28.72
71956;BME280;59829;50.562;6.258;2023-03-01T21:23:44;96828.53;;;24.10;28.61
71956;BME280;59829;50.562;6.258;2023-03-01T21:44:37;96819.25;;;24.37;28.93
71956;BME280;59829;50.562;6.258;2023-03-01T21:54:38;96810.47;;;24.45;28.96
71956;BME280;59829;50.562;6.258;2023-03-01T22:04:38;96805.22;;;24.45;28.85
71956;BME280;59829;50.562;6.258;2023-03-01T22:14:40;96802.72;;;24.37;29.10
71956;BME280;59829;50.562;6.258;2023-03-01T22:24:42;96788.88;;;24.28;29.48
71956;BME280;59829;50.562;6.258;2023-03-01T22:34:43;96790.53;;;24.29;29.42
71956;BME280;59829;50.562;6.258;2023-03-01T22:44:43;96797.31;;;24.23;29.56
71956;BME280;59829;50.562;6.258;2023-03-01T22:54:44;96791.91;;;24.10;29.70
71956;BME280;59829;50.562;6.258;2023-03-01T23:04:44;96783.78;;;24.05;29.72
71956;BME280;59829;50.562;6.258;2023-03-01T23:14:47;96789.75;;;23.99;29.90
71956;BME280;59829;50.562;6.258;2023-03-01T23:24:47;96785.59;;;23.90;30.04
71956;BME280;59829;50.562;6.258;2023-03-01T23:34:48;96786.03;;;23.93;29.85
71956;BME280;59829;50.562;6.258;2023-03-01T23:44:48;96782.34;;;23.88;30.18
71956;BME280;59829;50.562;6.258;2023-03-01T23:54:49;96781.00;;;23.77;30.21
